createdAt,value
2022-08-08T00:01:09.298Z,99.90
2022-08-08T00:04:02.509Z,99.90
2022-08-08T00:06:44.288Z,99.90
2022-08-08T00:09:17.746Z,99.90
2022-08-08T00:12:07.134Z,99.90
2022-08-08T00:14:57.010Z,99.90
2022-08-08T00:18:02.385Z,99.90
2022-08-08T00:20:52.600Z,99.90
2022-08-08T00:23:47.786Z,99.90
2022-08-08T00:26:35.548Z,99.90
2022-08-08T00:29:11.239Z,99.90
2022-08-08T00:32:15.349Z,99.90
2022-08-08T00:35:20.252Z,99.90
2022-08-08T00:38:16.813Z,99.90
2022-08-08T00:41:45.169Z,99.90
2022-08-08T00:45:00.484Z,99.90
2022-08-08T00:48:04.870Z,99.90
2022-08-08T00:50:40.865Z,99.90
2022-08-08T00:53:56.989Z,99.90
2022-08-08T00:56:58.345Z,99.90
2022-08-08T01:00:10.659Z,99.90
2022-08-08T01:03:59.491Z,99.90
2022-08-08T01:06:02.297Z,99.90
2022-08-08T01:09:36.138Z,99.90
2022-08-08T01:12:11.920Z,99.90
2022-08-08T01:15:03.484Z,99.90
2022-08-08T01:18:50.479Z,99.90
2022-08-08T01:21:15.050Z,99.90
2022-08-08T01:24:39.151Z,99.90
2022-08-08T01:27:33.249Z,99.90
2022-08-08T01:30:39.828Z,99.90
2022-08-08T01:33:23.883Z,99.90
2022-08-08T01:36:23.001Z,99.90
2022-08-08T01:39:04.319Z,99.90
2022-08-08T01:41:34.371Z,99.90
2022-08-08T01:44:26.671Z,99.90
2022-08-08T01:47:03.351Z,99.90
2022-08-08T01:50:19.912Z,99.90
2022-08-08T01:55:08.594Z,99.90
2022-08-08T01:56:30.657Z,99.90
2022-08-08T01:59:10.609Z,99.90
2022-08-08T02:02:04.854Z,99.90
2022-08-08T02:04:32.289Z,99.90
2022-08-08T02:07:16.557Z,99.90
2022-08-08T02:10:03.325Z,99.90
2022-08-08T02:12:51.467Z,99.90
2022-08-08T02:15:47.811Z,99.90
2022-08-08T02:18:39.001Z,99.90
2022-08-08T02:21:56.564Z,99.90
2022-08-08T02:24:28.871Z,99.90
2022-08-08T02:27:21.380Z,99.90
2022-08-08T02:30:21.212Z,99.90
2022-08-08T02:33:06.908Z,99.90
2022-08-08T02:36:05.082Z,99.90
2022-08-08T02:38:32.245Z,99.90
2022-08-08T02:41:59.423Z,99.90
2022-08-08T02:44:42.463Z,99.90
2022-08-08T02:47:22.580Z,99.90
2022-08-08T02:50:37.273Z,99.90
2022-08-08T02:53:42.099Z,99.90
2022-08-08T02:56:34.594Z,99.90
2022-08-08T02:59:58.001Z,99.90
2022-08-08T03:02:57.443Z,99.90
2022-08-08T03:05:51.493Z,99.90
2022-08-08T03:08:22.408Z,99.90
2022-08-08T03:11:13.895Z,99.90
2022-08-08T03:15:59.701Z,99.90
2022-08-08T03:17:39.654Z,99.90
2022-08-08T03:20:07.857Z,99.90
2022-08-08T03:22:45.258Z,99.90
2022-08-08T03:25:17.803Z,99.90
2022-08-08T03:28:00.468Z,99.90
2022-08-08T03:30:27.965Z,99.90
2022-08-08T03:33:55.863Z,99.90
2022-08-08T03:36:01.204Z,99.90
2022-08-08T03:38:54.151Z,99.90
2022-08-08T03:42:13.378Z,99.90
2022-08-08T03:44:02.098Z,99.90
2022-08-08T03:46:32.585Z,99.90
2022-08-08T03:49:15.266Z,99.90
2022-08-08T03:51:53.505Z,99.90
2022-08-08T03:54:40.646Z,99.90
2022-08-08T03:58:31.128Z,99.90
2022-08-08T04:00:11.465Z,99.90
2022-08-08T04:02:51.882Z,99.90
2022-08-08T04:05:22.792Z,99.90
2022-08-08T04:07:56.237Z,99.90
2022-08-08T04:10:25.974Z,99.90
2022-08-08T04:12:59.843Z,99.90
2022-08-08T04:15:30.507Z,99.90
2022-08-08T04:18:05.980Z,99.90
2022-08-08T04:20:32.891Z,99.90
2022-08-08T04:22:59.800Z,99.90
2022-08-08T04:25:32.989Z,99.90
2022-08-08T04:28:36.780Z,99.90
2022-08-08T04:30:55.163Z,99.90
2022-08-08T04:33:24.351Z,99.90
2022-08-08T04:35:53.719Z,99.90
2022-08-08T04:38:22.907Z,99.90
2022-08-08T04:40:54.351Z,99.90
2022-08-08T04:43:22.575Z,99.90
2022-08-08T04:45:59.476Z,99.90
2022-08-08T04:48:26.317Z,99.90
2022-08-08T04:50:53.231Z,99.90
2022-08-08T04:54:27.487Z,99.90
2022-08-08T04:56:07.342Z,99.90
2022-08-08T04:58:34.566Z,99.90
2022-08-08T05:01:05.857Z,99.90
2022-08-08T05:04:09.918Z,99.90
2022-08-08T05:06:28.153Z,99.90
2022-08-08T05:08:56.406Z,99.90
2022-08-08T05:11:30.384Z,99.90
2022-08-08T05:14:07.189Z,99.90
2022-08-08T05:16:51.937Z,99.90
2022-08-08T05:20:09.940Z,99.90
2022-08-08T05:22:09.809Z,99.90
2022-08-08T05:24:38.575Z,99.90
2022-08-08T05:27:06.073Z,99.90
2022-08-08T05:29:36.071Z,99.90
2022-08-08T05:32:07.454Z,99.90
2022-08-08T05:34:51.534Z,99.90
2022-08-08T05:37:51.737Z,97.20
2022-08-08T05:40:17.780Z,93.20
2022-08-08T05:42:54.942Z,87.80
2022-08-08T05:45:30.734Z,79.40
2022-08-08T05:48:08.975Z,71.90
2022-08-08T05:50:38.772Z,61.70
2022-08-08T05:53:53.612Z,57.30
2022-08-08T05:56:09.784Z,52.70
2022-08-08T05:58:56.967Z,49.80
2022-08-08T06:01:57.488Z,46.20
2022-08-08T06:04:22.667Z,43.20
2022-08-08T06:06:53.701Z,41.90
2022-08-08T06:09:59.136Z,40.20
2022-08-08T06:12:29.966Z,39.20
2022-08-08T06:15:01.095Z,37.00
2022-08-08T06:18:18.309Z,36.40
2022-08-08T06:20:19.655Z,35.40
2022-08-08T06:22:49.309Z,35.00
2022-08-08T06:25:18.135Z,35.20
2022-08-08T06:27:49.110Z,34.30
2022-08-08T06:30:20.384Z,33.20
2022-08-08T06:33:00.982Z,33.10
2022-08-08T06:36:06.267Z,31.70
2022-08-08T06:38:27.775Z,31.30
2022-08-08T06:41:04.128Z,30.10
2022-08-08T06:43:37.596Z,30.30
2022-08-08T06:46:08.800Z,30.90
2022-08-08T06:48:36.576Z,31.00
2022-08-08T06:51:07.854Z,30.40
2022-08-08T06:53:39.187Z,31.40
2022-08-08T06:56:09.025Z,30.50
2022-08-08T06:58:36.836Z,30.00
2022-08-08T07:01:24.216Z,30.10
2022-08-08T07:04:36.823Z,29.60
2022-08-08T07:07:00.319Z,29.60
2022-08-08T07:09:41.500Z,29.40
2022-08-08T07:12:16.716Z,29.80
2022-08-08T07:14:51.632Z,29.80
2022-08-08T07:17:25.067Z,30.60
2022-08-08T07:20:11.185Z,30.10
2022-08-08T07:22:45.304Z,31.30
2022-08-08T07:25:17.420Z,31.30
2022-08-08T07:27:54.493Z,32.40
2022-08-08T07:30:30.899Z,32.80
2022-08-08T07:32:59.517Z,33.70
2022-08-08T07:35:29.091Z,33.50
2022-08-08T07:38:10.670Z,35.20
2022-08-08T07:40:46.542Z,36.30
2022-08-08T07:43:14.874Z,35.50
2022-08-08T07:46:04.731Z,36.20
2022-08-08T07:48:30.359Z,36.70
2022-08-08T07:51:00.754Z,38.10
2022-08-08T07:54:02.167Z,37.10
2022-08-08T07:56:35.651Z,36.00
2022-08-08T07:59:10.436Z,36.10
2022-08-08T08:02:36.437Z,37.40
2022-08-08T08:04:39.902Z,36.40
2022-08-08T08:07:08.817Z,36.30
2022-08-08T08:09:40.285Z,36.90
2022-08-08T08:12:09.465Z,37.50
2022-08-08T08:15:02.949Z,39.10
2022-08-08T08:17:36.376Z,38.00
2022-08-08T08:20:16.168Z,37.70
2022-08-08T08:22:43.624Z,37.30
2022-08-08T08:25:10.556Z,38.90
2022-08-08T08:27:37.502Z,38.20
2022-08-08T08:30:05.848Z,37.10
2022-08-08T08:32:36.356Z,36.90
2022-08-08T08:35:08.506Z,34.60
2022-08-08T08:37:58.940Z,35.50
2022-08-08T08:40:23.820Z,37.20
2022-08-08T08:42:53.550Z,40.30
2022-08-08T08:45:23.651Z,38.70
2022-08-08T08:47:54.766Z,36.50
2022-08-08T08:50:33.258Z,37.70
2022-08-08T08:53:28.240Z,37.10
2022-08-08T08:55:56.078Z,36.50
2022-08-08T08:58:46.709Z,34.90
2022-08-08T09:01:23.845Z,35.80
2022-08-08T09:03:51.700Z,37.00
2022-08-08T09:06:33.979Z,37.20
2022-08-08T09:09:26.381Z,39.20
2022-08-08T09:12:08.090Z,38.90
2022-08-08T09:14:35.655Z,37.40
2022-08-08T09:17:14.254Z,38.60
2022-08-08T09:21:59.847Z,38.80
2022-08-08T09:22:34.486Z,38.10
2022-08-08T09:25:02.125Z,36.60
2022-08-08T09:27:42.160Z,36.90
2022-08-08T09:30:20.042Z,35.60
2022-08-08T09:33:12.705Z,35.40
2022-08-08T09:35:49.824Z,35.70
2022-08-08T09:38:53.450Z,36.20
2022-08-08T09:42:14.259Z,35.60
2022-08-08T09:44:54.499Z,38.20
2022-08-08T09:48:02.472Z,39.30
2022-08-08T09:50:14.575Z,39.90
2022-08-08T09:52:55.951Z,42.90
2022-08-08T09:55:51.350Z,44.30
2022-08-08T09:58:26.092Z,45.30
2022-08-08T10:01:15.217Z,45.60
2022-08-08T10:04:02.465Z,46.20
2022-08-08T10:06:32.669Z,45.50
2022-08-08T10:09:02.711Z,46.20
2022-08-08T10:12:27.355Z,46.50
2022-08-08T10:14:28.512Z,47.10
2022-08-08T10:17:56.526Z,49.60
2022-08-08T10:20:00.715Z,49.80
2022-08-08T10:22:30.002Z,49.50
2022-08-08T10:25:05.375Z,48.00
2022-08-08T10:27:42.062Z,48.20
2022-08-08T10:30:16.222Z,45.10
2022-08-08T10:33:00.303Z,44.00
2022-08-08T10:36:09.490Z,45.40
2022-08-08T10:38:16.932Z,46.20
2022-08-08T10:40:45.933Z,47.30
2022-08-08T10:43:13.146Z,46.60
2022-08-08T10:45:55.557Z,44.40
2022-08-08T10:48:57.714Z,42.60
2022-08-08T10:51:31.212Z,43.00
2022-08-08T10:54:02.461Z,43.80
2022-08-08T10:56:36.318Z,45.40
2022-08-08T10:59:10.219Z,47.70
2022-08-08T11:01:49.331Z,48.20
2022-08-08T11:04:29.981Z,49.80
2022-08-08T11:07:06.902Z,49.20
2022-08-08T11:09:34.619Z,48.80
2022-08-08T11:12:13.515Z,48.90
2022-08-08T11:14:51.810Z,48.50
2022-08-08T11:17:58.855Z,47.30
2022-08-08T11:20:12.482Z,47.60
2022-08-08T11:22:41.344Z,48.10
2022-08-08T11:25:14.045Z,48.70
2022-08-08T11:27:44.564Z,50.30
2022-08-08T11:30:20.277Z,49.60
2022-08-08T11:32:54.841Z,50.70
2022-08-08T11:35:27.049Z,51.50
2022-08-08T11:38:36.711Z,52.60
2022-08-08T11:40:52.981Z,52.90
2022-08-08T11:43:21.687Z,51.00
2022-08-08T11:46:17.596Z,50.80
2022-08-08T11:48:39.815Z,50.00
2022-08-08T11:51:30.294Z,50.70
2022-08-08T11:54:01.300Z,50.90
2022-08-08T11:56:34.652Z,50.50
2022-08-08T11:59:12.022Z,49.80
2022-08-08T12:01:39.223Z,50.40
2022-08-08T12:04:09.234Z,50.60
2022-08-08T12:06:39.355Z,50.90
2022-08-08T12:09:17.107Z,51.30
2022-08-08T12:11:45.862Z,51.50
2022-08-08T12:14:23.308Z,52.20
2022-08-08T12:16:52.460Z,52.70
2022-08-08T12:19:31.478Z,53.40
2022-08-08T12:22:13.215Z,52.40
2022-08-08T12:24:53.686Z,52.00
2022-08-08T12:27:26.841Z,50.70
2022-08-08T12:30:02.494Z,51.40
2022-08-08T12:32:42.021Z,51.30
2022-08-08T12:35:21.823Z,50.80
2022-08-08T12:38:07.638Z,50.70
2022-08-08T12:40:57.096Z,51.10
2022-08-08T12:43:32.730Z,50.70
2022-08-08T12:46:19.249Z,50.70
2022-08-08T12:49:22.297Z,50.40
2022-08-08T12:51:50.123Z,50.40
2022-08-08T12:54:35.959Z,50.00
2022-08-08T12:57:24.403Z,50.90
2022-08-08T13:00:05.392Z,50.40
2022-08-08T13:02:51.778Z,51.60
2022-08-08T13:05:27.033Z,49.70
2022-08-08T13:08:20.371Z,49.90
2022-08-08T13:10:56.728Z,50.50
2022-08-08T13:13:34.859Z,50.00
2022-08-08T13:16:36.439Z,49.50
2022-08-08T13:19:11.663Z,50.60
2022-08-08T13:21:55.535Z,51.30
2022-08-08T13:24:41.927Z,50.70
2022-08-08T13:27:38.288Z,51.80
2022-08-08T13:30:06.574Z,51.70
2022-08-08T13:32:39.563Z,51.90
2022-08-08T13:35:24.312Z,51.80
2022-08-08T13:38:06.594Z,51.20
2022-08-08T13:40:35.209Z,51.70
2022-08-08T13:43:03.649Z,52.00
2022-08-08T13:45:31.309Z,51.20
2022-08-08T13:48:03.064Z,51.10
2022-08-08T13:50:49.021Z,53.40
2022-08-08T13:53:36.105Z,52.80
2022-08-08T13:56:11.552Z,51.90
2022-08-08T13:58:56.264Z,52.30
2022-08-08T14:01:32.894Z,51.70
2022-08-08T14:04:23.174Z,52.00
2022-08-08T14:07:00.532Z,51.90
2022-08-08T14:10:05.604Z,51.30
2022-08-08T14:12:29.638Z,51.50
2022-08-08T14:14:57.164Z,51.00
2022-08-08T14:17:57.781Z,51.70
2022-08-08T14:20:15.763Z,51.30
2022-08-08T14:23:20.802Z,51.80
2022-08-08T14:26:03.929Z,51.30
2022-08-08T14:28:37.589Z,52.00
2022-08-08T14:31:09.401Z,52.00
2022-08-08T14:33:36.844Z,52.30
2022-08-08T14:36:06.823Z,51.90
2022-08-08T14:38:52.340Z,52.70
2022-08-08T14:41:45.582Z,51.90
2022-08-08T14:44:16.969Z,52.50
2022-08-08T14:47:01.102Z,52.60
2022-08-08T14:49:51.828Z,52.70
2022-08-08T14:52:21.797Z,52.20
2022-08-08T14:54:49.477Z,52.00
2022-08-08T14:57:17.058Z,52.10
2022-08-08T14:59:50.900Z,52.30
2022-08-08T15:02:25.273Z,53.00
2022-08-08T15:04:52.845Z,52.10
2022-08-08T15:07:24.323Z,52.60
2022-08-08T15:10:04.881Z,53.10
2022-08-08T15:12:36.399Z,53.10
2022-08-08T15:15:06.926Z,52.90
2022-08-08T15:17:37.758Z,53.00
2022-08-08T15:20:12.508Z,53.30
2022-08-08T15:22:42.475Z,53.00
2022-08-08T15:25:17.728Z,53.20
2022-08-08T15:28:03.577Z,52.70
2022-08-08T15:30:43.647Z,52.50
2022-08-08T15:33:14.382Z,53.30
2022-08-08T15:35:59.335Z,54.20
2022-08-08T15:38:26.431Z,53.30
2022-08-08T15:40:53.203Z,54.10
2022-08-08T15:43:36.062Z,53.00
2022-08-08T15:46:04.798Z,52.80
2022-08-08T15:48:31.556Z,54.10
2022-08-08T15:51:01.956Z,53.30
2022-08-08T15:53:40.236Z,53.60
2022-08-08T15:56:16.480Z,53.60
2022-08-08T15:58:48.749Z,54.40
2022-08-08T16:01:16.665Z,53.80
2022-08-08T16:03:46.115Z,53.40
2022-08-08T16:06:15.074Z,53.20
2022-08-08T16:09:02.211Z,53.30
2022-08-08T16:13:12.125Z,54.00
2022-08-08T16:14:33.750Z,53.80
2022-08-08T16:17:01.855Z,53.70
2022-08-08T16:19:30.173Z,54.10
2022-08-08T16:21:58.060Z,53.20
2022-08-08T16:24:24.823Z,54.00
2022-08-08T16:26:51.551Z,53.60
2022-08-08T16:29:23.807Z,52.90
2022-08-08T16:32:08.399Z,53.30
2022-08-08T16:34:40.480Z,52.70
2022-08-08T16:37:07.289Z,52.70
2022-08-08T16:40:01.559Z,53.00
2022-08-08T16:42:20.930Z,53.20
2022-08-08T16:44:54.326Z,53.20
2022-08-08T16:47:40.175Z,53.60
2022-08-08T16:50:15.838Z,54.60
2022-08-08T16:55:19.334Z,54.50
2022-08-08T16:55:55.628Z,53.50
2022-08-08T16:58:26.970Z,54.70
2022-08-08T17:00:59.277Z,54.90
2022-08-08T17:04:00.043Z,54.80
2022-08-08T17:06:36.889Z,54.60
2022-08-08T17:09:02.429Z,54.80
2022-08-08T17:11:39.521Z,54.80
2022-08-08T17:14:19.178Z,54.70
2022-08-08T17:16:57.775Z,54.80
2022-08-08T17:19:29.617Z,55.10
2022-08-08T17:21:57.831Z,55.00
2022-08-08T17:24:29.938Z,55.20
2022-08-08T17:26:58.722Z,55.10
2022-08-08T17:29:26.952Z,55.30
2022-08-08T17:31:53.764Z,55.60
2022-08-08T17:34:48.796Z,55.50
2022-08-08T17:37:11.095Z,56.10
2022-08-08T17:40:02.947Z,56.20
2022-08-08T17:42:26.363Z,56.30
2022-08-08T17:44:53.325Z,55.90
2022-08-08T17:47:37.561Z,56.00
2022-08-08T17:50:08.352Z,56.50
2022-08-08T17:52:38.028Z,55.80
2022-08-08T17:56:03.295Z,56.10
2022-08-08T17:57:53.470Z,56.40
2022-08-08T18:00:25.861Z,57.00
2022-08-08T18:03:07.534Z,58.20
2022-08-08T18:05:48.443Z,57.60
2022-08-08T18:08:38.229Z,57.60
2022-08-08T18:11:15.320Z,58.30
2022-08-08T18:13:47.347Z,57.90
2022-08-08T18:16:16.932Z,58.70
2022-08-08T18:18:53.172Z,58.80
2022-08-08T18:21:35.160Z,58.80
2022-08-08T18:24:17.399Z,59.60
2022-08-08T18:26:54.587Z,60.10
2022-08-08T18:29:41.636Z,60.70
2022-08-08T18:32:09.614Z,60.50
2022-08-08T18:34:39.512Z,61.40
2022-08-08T18:37:09.321Z,61.40
2022-08-08T18:39:42.024Z,61.40
2022-08-08T18:42:14.283Z,61.70
2022-08-08T18:44:56.039Z,61.90
2022-08-08T18:47:26.588Z,62.50
2022-08-08T18:49:58.689Z,63.40
2022-08-08T18:52:27.255Z,64.70
2022-08-08T18:54:59.750Z,66.50
2022-08-08T18:57:41.953Z,67.50
2022-08-08T19:00:21.400Z,68.60
2022-08-08T19:03:04.146Z,69.40
2022-08-08T19:05:44.309Z,70.10
2022-08-08T19:08:24.402Z,71.10
2022-08-08T19:10:59.713Z,72.20
2022-08-08T19:13:53.480Z,73.50
2022-08-08T19:16:18.930Z,74.40
2022-08-08T19:18:51.769Z,74.80
2022-08-08T19:21:31.218Z,75.50
2022-08-08T19:24:00.032Z,76.60
2022-08-08T19:26:30.445Z,78.40
2022-08-08T19:28:59.645Z,79.20
2022-08-08T19:31:31.276Z,80.10
2022-08-08T19:34:36.340Z,81.00
2022-08-08T19:36:58.425Z,82.40
2022-08-08T19:39:34.747Z,83.50
2022-08-08T19:42:03.494Z,84.50
2022-08-08T19:44:43.349Z,86.80
2022-08-08T19:47:14.083Z,88.70
2022-08-08T19:49:43.153Z,90.30
2022-08-08T19:52:13.483Z,90.90
2022-08-08T19:54:40.436Z,91.70
2022-08-08T19:57:10.058Z,92.70
2022-08-08T19:59:41.990Z,94.40
2022-08-08T20:02:10.706Z,95.40
2022-08-08T20:04:38.471Z,96.40
2022-08-08T20:08:30.517Z,97.30
2022-08-08T20:09:58.622Z,98.20
2022-08-08T20:12:32.087Z,99.70
2022-08-08T20:15:14.967Z,99.90
2022-08-08T20:17:45.985Z,99.90
2022-08-08T20:20:16.042Z,99.90
2022-08-08T20:22:48.668Z,99.90
2022-08-08T20:25:17.422Z,99.90
2022-08-08T20:27:50.560Z,99.90
2022-08-08T20:30:53.077Z,99.90
2022-08-08T20:33:18.748Z,99.90
2022-08-08T20:35:57.016Z,99.90
2022-08-08T20:38:29.291Z,99.90
2022-08-08T20:40:59.386Z,99.90
2022-08-08T20:43:43.467Z,99.90
2022-08-08T20:46:13.301Z,99.90
2022-08-08T20:48:40.974Z,99.90
2022-08-08T20:51:08.760Z,99.90
2022-08-08T20:54:01.131Z,99.90
2022-08-08T20:56:35.289Z,99.90
2022-08-08T20:59:10.107Z,99.90
2022-08-08T21:02:05.569Z,99.90
2022-08-08T21:04:27.341Z,99.90
2022-08-08T21:06:55.158Z,99.90
2022-08-08T21:09:22.160Z,99.90
2022-08-08T21:11:50.419Z,99.90
2022-08-08T21:14:30.200Z,99.90
2022-08-08T21:17:00.099Z,99.90
2022-08-08T21:19:26.850Z,99.90
2022-08-08T21:22:11.511Z,99.90
2022-08-08T21:24:39.653Z,99.90
2022-08-08T21:27:39.009Z,99.90
2022-08-08T21:30:05.692Z,99.90
2022-08-08T21:32:37.468Z,99.90
2022-08-08T21:36:18.002Z,99.90
2022-08-08T21:37:54.229Z,99.90
2022-08-08T21:40:31.504Z,99.90
2022-08-08T21:42:59.187Z,99.90
2022-08-08T21:48:00.923Z,99.90
2022-08-08T21:48:21.930Z,99.90
2022-08-08T21:50:58.152Z,99.90
2022-08-08T21:54:31.917Z,99.90
2022-08-08T21:56:19.152Z,99.90
2022-08-08T21:59:00.328Z,99.90
2022-08-08T22:01:41.193Z,99.90
2022-08-08T22:04:11.367Z,99.90
2022-08-08T22:06:40.320Z,99.90
2022-08-08T22:09:09.516Z,99.90
2022-08-08T22:12:02.367Z,99.90
2022-08-08T22:14:26.455Z,99.90
2022-08-08T22:16:54.261Z,99.90
2022-08-08T22:19:23.989Z,99.90
2022-08-08T22:21:51.913Z,99.90
2022-08-08T22:24:23.826Z,99.90
2022-08-08T22:27:01.857Z,99.90
2022-08-08T22:29:59.395Z,99.90
2022-08-08T22:32:18.703Z,99.90
2022-08-08T22:34:51.035Z,99.90
2022-08-08T22:37:49.077Z,99.90
2022-08-08T22:40:11.733Z,99.90
2022-08-08T22:42:47.212Z,99.90
2022-08-08T22:45:14.825Z,99.90
2022-08-08T22:47:47.255Z,99.90
2022-08-08T22:50:26.097Z,99.90
2022-08-08T22:54:31.405Z,99.90
2022-08-08T22:55:59.159Z,99.90
2022-08-08T22:58:33.803Z,99.90
2022-08-08T23:01:26.861Z,99.90
2022-08-08T23:03:53.965Z,99.90
2022-08-08T23:06:21.953Z,99.90
2022-08-08T23:08:55.286Z,99.90
2022-08-08T23:11:30.511Z,99.90
2022-08-08T23:14:14.958Z,99.90
2022-08-08T23:16:47.016Z,99.90
2022-08-08T23:19:17.587Z,99.90
2022-08-08T23:21:46.866Z,99.90
2022-08-08T23:24:13.823Z,99.90
2022-08-08T23:26:55.473Z,99.90
2022-08-08T23:29:25.165Z,99.90
2022-08-08T23:31:52.502Z,99.90
2022-08-08T23:34:20.062Z,99.90
2022-08-08T23:36:47.972Z,99.90
2022-08-08T23:39:15.612Z,99.90
2022-08-08T23:41:46.265Z,99.90
2022-08-08T23:44:18.490Z,99.90
2022-08-08T23:49:08.352Z,99.90
2022-08-08T23:49:35.979Z,99.90
2022-08-08T23:52:05.323Z,99.90
2022-08-08T23:54:42.201Z,99.90
2022-08-08T23:57:26.907Z,99.90
